sensor_id;sensor_type;location;lat;lon;timestamp;P1;durP1;ratioP1;P2;durP2;ratioP2
25615;SDS011;13482;48.234;13.006;2023-02-23T00:02:02;3.03;;;1.90;;
25615;SDS011;13482;48.234;13.006;2023-02-23T00:04:32;3.00;;;1.85;;
25615;SDS011;13482;48.234;13.006;2023-02-23T00:07:02;3.13;;;1.85;;
25615;SDS011;13482;48.234;13.006;2023-02-23T00:09:31;2.60;;;1.73;;
25615;SDS011;13482;48.234;13.006;2023-02-23T00:12:02;3.03;;;1.90;;
25615;SDS011;13482;48.234;13.006;2023-02-23T00:14:35;2.90;;;1.83;;
25615;SDS011;13482;48.234;13.006;2023-02-23T00:17:03;2.50;;;1.60;;
25615;SDS011;13482;48.234;13.006;2023-02-23T00:19:39;2.55;;;1.65;;
25615;SDS011;13482;48.234;13.006;2023-02-23T00:22:09;3.05;;;1.88;;
25615;SDS011;13482;48.234;13.006;2023-02-23T00:24:37;2.90;;;1.70;;
25615;SDS011;13482;48.234;13.006;2023-02-23T00:27:05;2.72;;;1.60;;
25615;SDS011;13482;48.234;13.006;2023-02-23T00:29:33;2.55;;;1.58;;
25615;SDS011;13482;48.234;13.006;2023-02-23T00:32:05;3.22;;;1.95;;
25615;SDS011;13482;48.234;13.006;2023-02-23T00:34:32;2.70;;;1.70;;
25615;SDS011;13482;48.234;13.006;2023-02-23T00:37:01;2.90;;;1.70;;
25615;SDS011;13482;48.234;13.006;2023-02-23T00:39:28;2.50;;;1.80;;
25615;SDS011;13482;48.234;13.006;2023-02-23T00:41:55;2.45;;;1.50;;
25615;SDS011;13482;48.234;13.006;2023-02-23T00:44:28;3.00;;;2.05;;
25615;SDS011;13482;48.234;13.006;2023-02-23T00:46:56;2.60;;;1.70;;
25615;SDS011;13482;48.234;13.006;2023-02-23T00:49:23;2.20;;;1.70;;
25615;SDS011;13482;48.234;13.006;2023-02-23T00:51:50;3.15;;;1.85;;
25615;SDS011;13482;48.234;13.006;2023-02-23T00:54:19;2.90;;;1.90;;
25615;SDS011;13482;48.234;13.006;2023-02-23T00:56:47;3.13;;;2.05;;
25615;SDS011;13482;48.234;13.006;2023-02-23T00:59:15;2.97;;;1.98;;
25615;SDS011;13482;48.234;13.006;2023-02-23T01:01:42;3.13;;;1.92;;
25615;SDS011;13482;48.234;13.006;2023-02-23T01:04:10;2.72;;;1.73;;
25615;SDS011;13482;48.234;13.006;2023-02-23T01:06:38;3.13;;;2.00;;
25615;SDS011;13482;48.234;13.006;2023-02-23T01:09:13;3.58;;;1.80;;
25615;SDS011;13482;48.234;13.006;2023-02-23T01:11:53;3.63;;;1.77;;
25615;SDS011;13482;48.234;13.006;2023-02-23T01:14:22;2.53;;;1.77;;
25615;SDS011;13482;48.234;13.006;2023-02-23T01:16:50;3.00;;;1.70;;
25615;SDS011;13482;48.234;13.006;2023-02-23T01:19:17;3.33;;;1.58;;
25615;SDS011;13482;48.234;13.006;2023-02-23T01:21:47;2.95;;;1.80;;
25615;SDS011;13482;48.234;13.006;2023-02-23T01:24:14;2.08;;;1.48;;
25615;SDS011;13482;48.234;13.006;2023-02-23T01:26:43;2.88;;;1.60;;
25615;SDS011;13482;48.234;13.006;2023-02-23T01:29:15;2.42;;;1.40;;
25615;SDS011;13482;48.234;13.006;2023-02-23T01:31:45;2.45;;;1.63;;
25615;SDS011;13482;48.234;13.006;2023-02-23T01:34:14;2.53;;;1.60;;
25615;SDS011;13482;48.234;13.006;2023-02-23T01:36:42;3.50;;;1.60;;
25615;SDS011;13482;48.234;13.006;2023-02-23T01:39:11;3.03;;;1.65;;
25615;SDS011;13482;48.234;13.006;2023-02-23T01:41:41;2.50;;;1.55;;
25615;SDS011;13482;48.234;13.006;2023-02-23T01:46:40;3.05;;;1.60;;
25615;SDS011;13482;48.234;13.006;2023-02-23T01:49:12;4.15;;;1.90;;
25615;SDS011;13482;48.234;13.006;2023-02-23T01:51:51;2.25;;;1.52;;
25615;SDS011;13482;48.234;13.006;2023-02-23T01:54:25;2.10;;;1.40;;
25615;SDS011;13482;48.234;13.006;2023-02-23T01:56:59;2.47;;;1.55;;
25615;SDS011;13482;48.234;13.006;2023-02-23T01:59:32;3.40;;;1.45;;
25615;SDS011;13482;48.234;13.006;2023-02-23T02:02:04;2.42;;;1.58;;
25615;SDS011;13482;48.234;13.006;2023-02-23T02:04:37;3.53;;;1.75;;
25615;SDS011;13482;48.234;13.006;2023-02-23T02:07:14;2.50;;;1.70;;
25615;SDS011;13482;48.234;13.006;2023-02-23T02:10:04;2.28;;;1.45;;
25615;SDS011;13482;48.234;13.006;2023-02-23T02:12:39;2.45;;;1.60;;
25615;SDS011;13482;48.234;13.006;2023-02-23T02:15:12;2.10;;;1.40;;
25615;SDS011;13482;48.234;13.006;2023-02-23T02:20:47;2.17;;;1.40;;
25615;SDS011;13482;48.234;13.006;2023-02-23T02:32:55;2.45;;;1.38;;
25615;SDS011;13482;48.234;13.006;2023-02-23T02:39:10;3.92;;;1.60;;
25615;SDS011;13482;48.234;13.006;2023-02-23T02:41:56;2.45;;;1.65;;
25615;SDS011;13482;48.234;13.006;2023-02-23T02:50:34;3.97;;;1.98;;
25615;SDS011;13482;48.234;13.006;2023-02-23T02:56:34;2.35;;;1.63;;
25615;SDS011;13482;48.234;13.006;2023-02-23T02:59:06;3.13;;;1.77;;
25615;SDS011;13482;48.234;13.006;2023-02-23T03:02:03;3.38;;;1.83;;
25615;SDS011;13482;48.234;13.006;2023-02-23T03:04:50;4.55;;;1.80;;
25615;SDS011;13482;48.234;13.006;2023-02-23T03:08:01;3.42;;;1.77;;
25615;SDS011;13482;48.234;13.006;2023-02-23T03:10:57;3.63;;;2.20;;
25615;SDS011;13482;48.234;13.006;2023-02-23T03:17:04;3.00;;;1.95;;
25615;SDS011;13482;48.234;13.006;2023-02-23T03:23:21;3.25;;;2.10;;
25615;SDS011;13482;48.234;13.006;2023-02-23T03:26:26;2.50;;;1.80;;
25615;SDS011;13482;48.234;13.006;2023-02-23T03:32:53;2.65;;;1.90;;
25615;SDS011;13482;48.234;13.006;2023-02-23T03:35:44;3.30;;;2.42;;
25615;SDS011;13482;48.234;13.006;2023-02-23T03:42:10;5.10;;;3.55;;
25615;SDS011;13482;48.234;13.006;2023-02-23T03:45:03;4.30;;;2.45;;
25615;SDS011;13482;48.234;13.006;2023-02-23T03:47:54;3.33;;;2.35;;
25615;SDS011;13482;48.234;13.006;2023-02-23T03:50:45;3.17;;;1.98;;
25615;SDS011;13482;48.234;13.006;2023-02-23T03:53:41;3.42;;;2.17;;
25615;SDS011;13482;48.234;13.006;2023-02-23T03:56:46;3.33;;;2.00;;
25615;SDS011;13482;48.234;13.006;2023-02-23T03:59:37;2.85;;;1.88;;
25615;SDS011;13482;48.234;13.006;2023-02-23T04:02:32;3.20;;;1.85;;
25615;SDS011;13482;48.234;13.006;2023-02-23T04:05:20;2.45;;;1.70;;
25615;SDS011;13482;48.234;13.006;2023-02-23T04:08:08;2.72;;;1.75;;
25615;SDS011;13482;48.234;13.006;2023-02-23T04:11:04;2.42;;;1.67;;
25615;SDS011;13482;48.234;13.006;2023-02-23T04:14:20;2.60;;;1.80;;
25615;SDS011;13482;48.234;13.006;2023-02-23T04:16:57;2.25;;;1.50;;
25615;SDS011;13482;48.234;13.006;2023-02-23T04:19:25;2.67;;;1.85;;
25615;SDS011;13482;48.234;13.006;2023-02-23T04:21:54;3.25;;;1.92;;
25615;SDS011;13482;48.234;13.006;2023-02-23T04:24:21;2.70;;;1.77;;
25615;SDS011;13482;48.234;13.006;2023-02-23T04:26:48;2.33;;;1.60;;
25615;SDS011;13482;48.234;13.006;2023-02-23T04:29:15;3.33;;;1.90;;
25615;SDS011;13482;48.234;13.006;2023-02-23T04:31:42;2.80;;;1.75;;
25615;SDS011;13482;48.234;13.006;2023-02-23T04:34:10;3.58;;;2.08;;
25615;SDS011;13482;48.234;13.006;2023-02-23T04:36:37;3.00;;;1.90;;
25615;SDS011;13482;48.234;13.006;2023-02-23T04:39:05;3.03;;;1.85;;
25615;SDS011;13482;48.234;13.006;2023-02-23T04:41:33;3.17;;;2.03;;
25615;SDS011;13482;48.234;13.006;2023-02-23T04:44:00;3.38;;;2.15;;
25615;SDS011;13482;48.234;13.006;2023-02-23T04:46:27;4.03;;;1.85;;
25615;SDS011;13482;48.234;13.006;2023-02-23T04:48:54;3.75;;;2.13;;
25615;SDS011;13482;48.234;13.006;2023-02-23T04:51:21;2.80;;;2.08;;
25615;SDS011;13482;48.234;13.006;2023-02-23T04:53:49;3.38;;;2.30;;
25615;SDS011;13482;48.234;13.006;2023-02-23T04:56:16;4.10;;;2.53;;
25615;SDS011;13482;48.234;13.006;2023-02-23T04:58:43;3.42;;;2.40;;
25615;SDS011;13482;48.234;13.006;2023-02-23T05:01:10;3.72;;;2.63;;
25615;SDS011;13482;48.234;13.006;2023-02-23T05:03:38;5.82;;;3.00;;
25615;SDS011;13482;48.234;13.006;2023-02-23T05:06:05;3.70;;;2.90;;
25615;SDS011;13482;48.234;13.006;2023-02-23T05:08:32;4.65;;;3.10;;
25615;SDS011;13482;48.234;13.006;2023-02-23T05:10:59;4.47;;;3.13;;
25615;SDS011;13482;48.234;13.006;2023-02-23T05:13:26;4.50;;;2.97;;
25615;SDS011;13482;48.234;13.006;2023-02-23T05:15:56;3.83;;;2.78;;
25615;SDS011;13482;48.234;13.006;2023-02-23T05:18:24;4.35;;;3.10;;
25615;SDS011;13482;48.234;13.006;2023-02-23T05:20:52;3.67;;;2.72;;
25615;SDS011;13482;48.234;13.006;2023-02-23T05:23:20;4.15;;;2.72;;
25615;SDS011;13482;48.234;13.006;2023-02-23T05:25:48;3.35;;;2.45;;
25615;SDS011;13482;48.234;13.006;2023-02-23T05:28:15;3.97;;;2.50;;
25615;SDS011;13482;48.234;13.006;2023-02-23T05:30:42;3.83;;;2.70;;
25615;SDS011;13482;48.234;13.006;2023-02-23T05:33:10;4.07;;;2.60;;
25615;SDS011;13482;48.234;13.006;2023-02-23T05:35:40;4.45;;;3.28;;
25615;SDS011;13482;48.234;13.006;2023-02-23T05:38:07;5.90;;;4.28;;
25615;SDS011;13482;48.234;13.006;2023-02-23T05:40:35;7.88;;;5.35;;
25615;SDS011;13482;48.234;13.006;2023-02-23T05:43:02;7.68;;;5.57;;
25615;SDS011;13482;48.234;13.006;2023-02-23T05:45:29;7.38;;;5.32;;
25615;SDS011;13482;48.234;13.006;2023-02-23T05:47:56;7.45;;;4.40;;
25615;SDS011;13482;48.234;13.006;2023-02-23T05:50:23;5.78;;;4.10;;
25615;SDS011;13482;48.234;13.006;2023-02-23T05:52:51;5.55;;;3.60;;
25615;SDS011;13482;48.234;13.006;2023-02-23T05:55:19;5.30;;;3.65;;
25615;SDS011;13482;48.234;13.006;2023-02-23T05:57:46;4.40;;;3.05;;
25615;SDS011;13482;48.234;13.006;2023-02-23T06:00:13;3.45;;;2.60;;
25615;SDS011;13482;48.234;13.006;2023-02-23T06:02:40;3.78;;;2.55;;
25615;SDS011;13482;48.234;13.006;2023-02-23T06:05:08;5.18;;;2.65;;
25615;SDS011;13482;48.234;13.006;2023-02-23T06:07:37;5.13;;;2.95;;
25615;SDS011;13482;48.234;13.006;2023-02-23T06:10:05;4.75;;;3.25;;
25615;SDS011;13482;48.234;13.006;2023-02-23T06:12:33;3.58;;;2.38;;
25615;SDS011;13482;48.234;13.006;2023-02-23T06:15:00;3.67;;;2.47;;
25615;SDS011;13482;48.234;13.006;2023-02-23T06:17:27;4.28;;;2.70;;
25615;SDS011;13482;48.234;13.006;2023-02-23T06:19:54;4.40;;;2.88;;
25615;SDS011;13482;48.234;13.006;2023-02-23T06:22:21;3.72;;;2.67;;
25615;SDS011;13482;48.234;13.006;2023-02-23T06:24:49;3.45;;;2.72;;
25615;SDS011;13482;48.234;13.006;2023-02-23T06:27:16;4.45;;;2.85;;
25615;SDS011;13482;48.234;13.006;2023-02-23T06:29:43;5.45;;;2.90;;
25615;SDS011;13482;48.234;13.006;2023-02-23T06:32:10;4.43;;;2.70;;
25615;SDS011;13482;48.234;13.006;2023-02-23T06:34:37;4.88;;;3.00;;
25615;SDS011;13482;48.234;13.006;2023-02-23T06:37:04;4.30;;;2.88;;
25615;SDS011;13482;48.234;13.006;2023-02-23T06:39:34;4.97;;;2.88;;
25615;SDS011;13482;48.234;13.006;2023-02-23T06:42:01;5.93;;;3.40;;
25615;SDS011;13482;48.234;13.006;2023-02-23T06:44:28;4.93;;;3.30;;
25615;SDS011;13482;48.234;13.006;2023-02-23T06:46:56;4.57;;;3.42;;
25615;SDS011;13482;48.234;13.006;2023-02-23T06:49:23;5.22;;;3.42;;
25615;SDS011;13482;48.234;13.006;2023-02-23T06:51:50;6.28;;;3.00;;
25615;SDS011;13482;48.234;13.006;2023-02-23T06:54:17;4.53;;;3.30;;
25615;SDS011;13482;48.234;13.006;2023-02-23T06:56:44;4.03;;;2.78;;
25615;SDS011;13482;48.234;13.006;2023-02-23T06:59:11;4.68;;;2.95;;
25615;SDS011;13482;48.234;13.006;2023-02-23T07:01:38;4.38;;;3.15;;
25615;SDS011;13482;48.234;13.006;2023-02-23T07:04:07;4.25;;;3.03;;
25615;SDS011;13482;48.234;13.006;2023-02-23T07:06:35;4.88;;;3.50;;
25615;SDS011;13482;48.234;13.006;2023-02-23T07:09:03;5.03;;;3.75;;
25615;SDS011;13482;48.234;13.006;2023-02-23T07:11:31;5.35;;;3.72;;
25615;SDS011;13482;48.234;13.006;2023-02-23T07:13:58;5.30;;;3.97;;
25615;SDS011;13482;48.234;13.006;2023-02-23T07:16:27;5.20;;;3.83;;
25615;SDS011;13482;48.234;13.006;2023-02-23T07:18:55;4.93;;;3.88;;
25615;SDS011;13482;48.234;13.006;2023-02-23T07:21:22;5.07;;;3.85;;
25615;SDS011;13482;48.234;13.006;2023-02-23T07:23:49;5.57;;;3.60;;
25615;SDS011;13482;48.234;13.006;2023-02-23T07:26:16;4.80;;;3.30;;
25615;SDS011;13482;48.234;13.006;2023-02-23T07:28:43;5.68;;;3.72;;
25615;SDS011;13482;48.234;13.006;2023-02-23T07:31:11;6.10;;;3.38;;
25615;SDS011;13482;48.234;13.006;2023-02-23T07:33:38;5.18;;;3.33;;
25615;SDS011;13482;48.234;13.006;2023-02-23T07:36:05;4.18;;;3.03;;
25615;SDS011;13482;48.234;13.006;2023-02-23T07:38:32;5.00;;;3.35;;
25615;SDS011;13482;48.234;13.006;2023-02-23T07:41:00;5.43;;;4.00;;
25615;SDS011;13482;48.234;13.006;2023-02-23T07:43:28;6.90;;;4.32;;
25615;SDS011;13482;48.234;13.006;2023-02-23T07:45:57;6.75;;;4.82;;
25615;SDS011;13482;48.234;13.006;2023-02-23T07:48:26;6.18;;;4.07;;
25615;SDS011;13482;48.234;13.006;2023-02-23T07:50:53;5.72;;;3.95;;
25615;SDS011;13482;48.234;13.006;2023-02-23T07:53:20;4.50;;;3.50;;
25615;SDS011;13482;48.234;13.006;2023-02-23T07:55:59;6.00;;;3.95;;
25615;SDS011;13482;48.234;13.006;2023-02-23T07:58:26;6.25;;;4.13;;
25615;SDS011;13482;48.234;13.006;2023-02-23T08:00:53;6.75;;;4.85;;
25615;SDS011;13482;48.234;13.006;2023-02-23T08:03:21;5.93;;;3.92;;
25615;SDS011;13482;48.234;13.006;2023-02-23T08:05:49;6.07;;;3.97;;
25615;SDS011;13482;48.234;13.006;2023-02-23T08:08:16;7.85;;;3.95;;
25615;SDS011;13482;48.234;13.006;2023-02-23T08:10:43;6.60;;;4.00;;
25615;SDS011;13482;48.234;13.006;2023-02-23T08:13:10;6.13;;;4.57;;
25615;SDS011;13482;48.234;13.006;2023-02-23T08:15:37;4.63;;;3.88;;
25615;SDS011;13482;48.234;13.006;2023-02-23T08:18:04;6.82;;;4.18;;
25615;SDS011;13482;48.234;13.006;2023-02-23T08:20:31;6.15;;;4.35;;
25615;SDS011;13482;48.234;13.006;2023-02-23T08:22:59;6.65;;;4.10;;
25615;SDS011;13482;48.234;13.006;2023-02-23T08:25:26;6.53;;;5.10;;
25615;SDS011;13482;48.234;13.006;2023-02-23T08:27:53;7.22;;;4.82;;
25615;SDS011;13482;48.234;13.006;2023-02-23T08:30:21;6.47;;;4.43;;
25615;SDS011;13482;48.234;13.006;2023-02-23T08:32:50;6.95;;;4.80;;
25615;SDS011;13482;48.234;13.006;2023-02-23T08:35:17;6.60;;;4.72;;
25615;SDS011;13482;48.234;13.006;2023-02-23T08:37:45;6.57;;;4.90;;
25615;SDS011;13482;48.234;13.006;2023-02-23T08:40:12;6.72;;;5.18;;
25615;SDS011;13482;48.234;13.006;2023-02-23T08:42:41;7.13;;;5.22;;
25615;SDS011;13482;48.234;13.006;2023-02-23T08:45:08;5.53;;;4.05;;
25615;SDS011;13482;48.234;13.006;2023-02-23T08:47:36;5.38;;;4.00;;
25615;SDS011;13482;48.234;13.006;2023-02-23T08:50:04;6.57;;;4.40;;
25615;SDS011;13482;48.234;13.006;2023-02-23T08:52:32;6.50;;;4.28;;
25615;SDS011;13482;48.234;13.006;2023-02-23T08:54:59;7.20;;;4.90;;
25615;SDS011;13482;48.234;13.006;2023-02-23T08:57:26;6.82;;;4.80;;
25615;SDS011;13482;48.234;13.006;2023-02-23T08:59:53;7.53;;;5.00;;
25615;SDS011;13482;48.234;13.006;2023-02-23T09:02:20;6.80;;;5.10;;
25615;SDS011;13482;48.234;13.006;2023-02-23T09:04:49;7.45;;;5.68;;
25615;SDS011;13482;48.234;13.006;2023-02-23T09:07:19;8.50;;;5.50;;
25615;SDS011;13482;48.234;13.006;2023-02-23T09:09:55;7.90;;;5.72;;
25615;SDS011;13482;48.234;13.006;2023-02-23T09:12:22;7.53;;;5.75;;
25615;SDS011;13482;48.234;13.006;2023-02-23T09:14:50;6.90;;;5.50;;
25615;SDS011;13482;48.234;13.006;2023-02-23T09:17:19;7.82;;;5.50;;
25615;SDS011;13482;48.234;13.006;2023-02-23T09:19:49;8.48;;;5.75;;
25615;SDS011;13482;48.234;13.006;2023-02-23T09:22:16;10.32;;;6.35;;
25615;SDS011;13482;48.234;13.006;2023-02-23T09:24:46;8.52;;;5.68;;
25615;SDS011;13482;48.234;13.006;2023-02-23T09:27:13;8.25;;;6.00;;
25615;SDS011;13482;48.234;13.006;2023-02-23T09:29:40;7.60;;;5.40;;
25615;SDS011;13482;48.234;13.006;2023-02-23T09:32:09;7.00;;;5.35;;
25615;SDS011;13482;48.234;13.006;2023-02-23T09:34:37;6.63;;;5.10;;
25615;SDS011;13482;48.234;13.006;2023-02-23T09:37:04;8.10;;;5.93;;
25615;SDS011;13482;48.234;13.006;2023-02-23T09:39:32;7.95;;;5.68;;
25615;SDS011;13482;48.234;13.006;2023-02-23T09:50:30;8.55;;;6.00;;
25615;SDS011;13482;48.234;13.006;2023-02-23T09:53:11;8.50;;;6.45;;
25615;SDS011;13482;48.234;13.006;2023-02-23T09:56:09;9.10;;;6.40;;
25615;SDS011;13482;48.234;13.006;2023-02-23T09:58:47;8.48;;;6.43;;
25615;SDS011;13482;48.234;13.006;2023-02-23T10:04:18;8.93;;;6.70;;
25615;SDS011;13482;48.234;13.006;2023-02-23T10:07:03;9.93;;;7.28;;
25615;SDS011;13482;48.234;13.006;2023-02-23T10:15:33;10.13;;;7.35;;
25615;SDS011;13482;48.234;13.006;2023-02-23T10:21:30;9.68;;;7.63;;
25615;SDS011;13482;48.234;13.006;2023-02-23T10:24:11;12.02;;;8.35;;
25615;SDS011;13482;48.234;13.006;2023-02-23T10:29:28;12.27;;;9.60;;
25615;SDS011;13482;48.234;13.006;2023-02-23T10:34:52;13.60;;;9.43;;
25615;SDS011;13482;48.234;13.006;2023-02-23T10:37:22;16.00;;;11.55;;
25615;SDS011;13482;48.234;13.006;2023-02-23T10:39:51;16.90;;;11.93;;
25615;SDS011;13482;48.234;13.006;2023-02-23T10:42:22;18.55;;;13.10;;
25615;SDS011;13482;48.234;13.006;2023-02-23T10:44:57;16.58;;;12.05;;
25615;SDS011;13482;48.234;13.006;2023-02-23T10:47:26;16.75;;;12.52;;
25615;SDS011;13482;48.234;13.006;2023-02-23T10:49:57;14.90;;;11.85;;
25615;SDS011;13482;48.234;13.006;2023-02-23T10:52:29;16.23;;;11.30;;
25615;SDS011;13482;48.234;13.006;2023-02-23T10:55:18;16.35;;;12.05;;
25615;SDS011;13482;48.234;13.006;2023-02-23T11:03:15;14.45;;;10.27;;
25615;SDS011;13482;48.234;13.006;2023-02-23T11:06:29;12.82;;;9.95;;
25615;SDS011;13482;48.234;13.006;2023-02-23T11:09:21;15.05;;;11.15;;
25615;SDS011;13482;48.234;13.006;2023-02-23T11:12:16;16.33;;;11.80;;
25615;SDS011;13482;48.234;13.006;2023-02-23T11:14:48;17.50;;;12.45;;
25615;SDS011;13482;48.234;13.006;2023-02-23T11:20:04;14.68;;;10.43;;
25615;SDS011;13482;48.234;13.006;2023-02-23T11:22:46;14.38;;;11.38;;
25615;SDS011;13482;48.234;13.006;2023-02-23T11:25:23;15.13;;;11.13;;
25615;SDS011;13482;48.234;13.006;2023-02-23T11:27:55;14.53;;;11.40;;
25615;SDS011;13482;48.234;13.006;2023-02-23T11:30:24;14.23;;;10.80;;
25615;SDS011;13482;48.234;13.006;2023-02-23T11:33:03;14.65;;;10.88;;
25615;SDS011;13482;48.234;13.006;2023-02-23T11:35:36;15.43;;;11.18;;
25615;SDS011;13482;48.234;13.006;2023-02-23T11:38:14;13.95;;;11.20;;
25615;SDS011;13482;48.234;13.006;2023-02-23T11:41:01;14.40;;;10.90;;
25615;SDS011;13482;48.234;13.006;2023-02-23T11:43:32;16.92;;;11.27;;
25615;SDS011;13482;48.234;13.006;2023-02-23T11:46:01;15.63;;;10.90;;
25615;SDS011;13482;48.234;13.006;2023-02-23T11:51:26;17.63;;;12.88;;
25615;SDS011;13482;48.234;13.006;2023-02-23T11:54:06;14.43;;;11.47;;
25615;SDS011;13482;48.234;13.006;2023-02-23T11:56:48;14.57;;;11.43;;
25615;SDS011;13482;48.234;13.006;2023-02-23T11:59:22;13.55;;;10.77;;
25615;SDS011;13482;48.234;13.006;2023-02-23T12:02:43;15.70;;;12.02;;
25615;SDS011;13482;48.234;13.006;2023-02-23T12:05:36;16.42;;;11.88;;
25615;SDS011;13482;48.234;13.006;2023-02-23T12:10:37;14.20;;;11.05;;
25615;SDS011;13482;48.234;13.006;2023-02-23T12:16:22;16.65;;;12.20;;
25615;SDS011;13482;48.234;13.006;2023-02-23T12:19:25;14.50;;;11.52;;
25615;SDS011;13482;48.234;13.006;2023-02-23T12:21:59;17.17;;;12.38;;
25615;SDS011;13482;48.234;13.006;2023-02-23T12:30:26;15.85;;;11.35;;
25615;SDS011;13482;48.234;13.006;2023-02-23T12:33:49;15.40;;;10.98;;
25615;SDS011;13482;48.234;13.006;2023-02-23T12:36:41;15.45;;;11.77;;
25615;SDS011;13482;48.234;13.006;2023-02-23T12:42:06;15.23;;;11.57;;
25615;SDS011;13482;48.234;13.006;2023-02-23T12:44:47;15.52;;;11.93;;
25615;SDS011;13482;48.234;13.006;2023-02-23T12:47:36;16.17;;;12.07;;
25615;SDS011;13482;48.234;13.006;2023-02-23T12:53:05;16.45;;;11.18;;
25615;SDS011;13482;48.234;13.006;2023-02-23T13:18:21;13.15;;;10.38;;
25615;SDS011;13482;48.234;13.006;2023-02-23T13:21:26;13.35;;;10.73;;
25615;SDS011;13482;48.234;13.006;2023-02-23T13:24:11;13.93;;;10.45;;
25615;SDS011;13482;48.234;13.006;2023-02-23T13:29:50;13.63;;;9.93;;
25615;SDS011;13482;48.234;13.006;2023-02-23T13:32:21;12.52;;;9.93;;
25615;SDS011;13482;48.234;13.006;2023-02-23T13:35:02;12.75;;;9.43;;
25615;SDS011;13482;48.234;13.006;2023-02-23T13:37:36;13.23;;;9.73;;
25615;SDS011;13482;48.234;13.006;2023-02-23T13:40:30;12.45;;;9.60;;
25615;SDS011;13482;48.234;13.006;2023-02-23T13:43:23;13.60;;;9.27;;
25615;SDS011;13482;48.234;13.006;2023-02-23T13:49:00;11.43;;;8.48;;
25615;SDS011;13482;48.234;13.006;2023-02-23T13:52:12;10.32;;;8.40;;
25615;SDS011;13482;48.234;13.006;2023-02-23T13:54:55;11.25;;;8.88;;
25615;SDS011;13482;48.234;13.006;2023-02-23T13:57:29;11.60;;;9.07;;
25615;SDS011;13482;48.234;13.006;2023-02-23T13:59:58;10.45;;;7.95;;
25615;SDS011;13482;48.234;13.006;2023-02-23T14:05:41;11.77;;;8.27;;
25615;SDS011;13482;48.234;13.006;2023-02-23T14:07:56;10.68;;;7.82;;
25615;SDS011;13482;48.234;13.006;2023-02-23T14:10:39;11.30;;;8.40;;
25615;SDS011;13482;48.234;13.006;2023-02-23T14:15:45;11.25;;;8.15;;
25615;SDS011;13482;48.234;13.006;2023-02-23T14:20:51;11.00;;;8.10;;
25615;SDS011;13482;48.234;13.006;2023-02-23T14:37:31;10.18;;;7.95;;
25615;SDS011;13482;48.234;13.006;2023-02-23T14:40:08;11.60;;;7.85;;
25615;SDS011;13482;48.234;13.006;2023-02-23T14:42:56;9.50;;;7.57;;
25615;SDS011;13482;48.234;13.006;2023-02-23T14:45:35;11.43;;;7.47;;
25615;SDS011;13482;48.234;13.006;2023-02-23T14:48:05;11.25;;;8.00;;
25615;SDS011;13482;48.234;13.006;2023-02-23T14:50:43;13.07;;;8.25;;
25615;SDS011;13482;48.234;13.006;2023-02-23T14:53:20;10.02;;;7.78;;
25615;SDS011;13482;48.234;13.006;2023-02-23T14:55:49;11.20;;;8.25;;
25615;SDS011;13482;48.234;13.006;2023-02-23T14:58:20;9.85;;;7.68;;
25615;SDS011;13482;48.234;13.006;2023-02-23T15:00:54;10.27;;;7.82;;
25615;SDS011;13482;48.234;13.006;2023-02-23T15:03:21;9.35;;;7.00;;
25615;SDS011;13482;48.234;13.006;2023-02-23T15:05:50;9.82;;;7.15;;
25615;SDS011;13482;48.234;13.006;2023-02-23T15:08:22;9.85;;;7.30;;
25615;SDS011;13482;48.234;13.006;2023-02-23T15:10:59;8.52;;;6.63;;
25615;SDS011;13482;48.234;13.006;2023-02-23T15:13:31;9.73;;;7.00;;
25615;SDS011;13482;48.234;13.006;2023-02-23T15:16:05;11.90;;;8.13;;
25615;SDS011;13482;48.234;13.006;2023-02-23T15:18:49;11.68;;;9.00;;
25615;SDS011;13482;48.234;13.006;2023-02-23T15:21:19;12.63;;;9.23;;
25615;SDS011;13482;48.234;13.006;2023-02-23T15:23:50;11.85;;;9.02;;
25615;SDS011;13482;48.234;13.006;2023-02-23T15:26:34;12.73;;;9.17;;
25615;SDS011;13482;48.234;13.006;2023-02-23T15:31:44;12.40;;;9.88;;
25615;SDS011;13482;48.234;13.006;2023-02-23T15:34:18;12.77;;;9.32;;
25615;SDS011;13482;48.234;13.006;2023-02-23T15:39:37;13.15;;;9.48;;
25615;SDS011;13482;48.234;13.006;2023-02-23T15:42:12;12.27;;;9.50;;
25615;SDS011;13482;48.234;13.006;2023-02-23T15:44:45;12.82;;;9.23;;
25615;SDS011;13482;48.234;13.006;2023-02-23T15:47:25;12.60;;;10.10;;
25615;SDS011;13482;48.234;13.006;2023-02-23T15:50:02;12.77;;;9.68;;
25615;SDS011;13482;48.234;13.006;2023-02-23T15:52:30;12.77;;;10.05;;
25615;SDS011;13482;48.234;13.006;2023-02-23T15:55:02;13.18;;;10.27;;
25615;SDS011;13482;48.234;13.006;2023-02-23T15:57:40;12.50;;;10.27;;
25615;SDS011;13482;48.234;13.006;2023-02-23T16:00:21;13.88;;;10.18;;
25615;SDS011;13482;48.234;13.006;2023-02-23T16:03:03;15.05;;;10.82;;
25615;SDS011;13482;48.234;13.006;2023-02-23T16:05:33;12.68;;;9.90;;
25615;SDS011;13482;48.234;13.006;2023-02-23T16:08:18;12.98;;;9.93;;
25615;SDS011;13482;48.234;13.006;2023-02-23T16:11:35;14.65;;;9.75;;
25615;SDS011;13482;48.234;13.006;2023-02-23T16:13:42;12.65;;;9.82;;
25615;SDS011;13482;48.234;13.006;2023-02-23T16:16:12;12.30;;;9.35;;
25615;SDS011;13482;48.234;13.006;2023-02-23T16:18:46;13.55;;;10.07;;
25615;SDS011;13482;48.234;13.006;2023-02-23T16:21:20;13.00;;;10.32;;
25615;SDS011;13482;48.234;13.006;2023-02-23T16:23:51;14.38;;;10.52;;
25615;SDS011;13482;48.234;13.006;2023-02-23T16:29:00;11.90;;;9.57;;
25615;SDS011;13482;48.234;13.006;2023-02-23T16:31:40;11.65;;;9.52;;
25615;SDS011;13482;48.234;13.006;2023-02-23T16:37:14;13.35;;;10.15;;
25615;SDS011;13482;48.234;13.006;2023-02-23T16:39:45;13.40;;;9.63;;
25615;SDS011;13482;48.234;13.006;2023-02-23T16:44:51;14.07;;;10.23;;
25615;SDS011;13482;48.234;13.006;2023-02-23T16:49:49;13.55;;;10.05;;
25615;SDS011;13482;48.234;13.006;2023-02-23T16:52:21;14.73;;;10.65;;
25615;SDS011;13482;48.234;13.006;2023-02-23T16:54:50;15.35;;;10.23;;
25615;SDS011;13482;48.234;13.006;2023-02-23T16:57:25;14.70;;;10.85;;
25615;SDS011;13482;48.234;13.006;2023-02-23T16:59:56;13.73;;;10.13;;
25615;SDS011;13482;48.234;13.006;2023-02-23T17:02:23;15.23;;;11.20;;
25615;SDS011;13482;48.234;13.006;2023-02-23T17:04:51;13.00;;;9.43;;
25615;SDS011;13482;48.234;13.006;2023-02-23T17:07:24;14.05;;;9.88;;
25615;SDS011;13482;48.234;13.006;2023-02-23T17:09:51;13.65;;;10.02;;
25615;SDS011;13482;48.234;13.006;2023-02-23T17:12:18;14.25;;;10.85;;
25615;SDS011;13482;48.234;13.006;2023-02-23T17:14:47;18.48;;;11.10;;
25615;SDS011;13482;48.234;13.006;2023-02-23T17:17:15;14.48;;;11.02;;
25615;SDS011;13482;48.234;13.006;2023-02-23T17:19:44;15.93;;;10.93;;
25615;SDS011;13482;48.234;13.006;2023-02-23T17:22:12;15.77;;;11.77;;
25615;SDS011;13482;48.234;13.006;2023-02-23T17:24:39;15.60;;;12.25;;
25615;SDS011;13482;48.234;13.006;2023-02-23T17:27:08;14.18;;;10.65;;
25615;SDS011;13482;48.234;13.006;2023-02-23T17:29:35;15.70;;;11.38;;
25615;SDS011;13482;48.234;13.006;2023-02-23T17:32:02;17.02;;;12.80;;
25615;SDS011;13482;48.234;13.006;2023-02-23T17:34:30;17.30;;;12.57;;
25615;SDS011;13482;48.234;13.006;2023-02-23T17:36:57;18.55;;;13.10;;
25615;SDS011;13482;48.234;13.006;2023-02-23T17:39:24;17.00;;;13.07;;
25615;SDS011;13482;48.234;13.006;2023-02-23T17:41:53;15.00;;;11.60;;
25615;SDS011;13482;48.234;13.006;2023-02-23T17:44:21;15.07;;;11.50;;
25615;SDS011;13482;48.234;13.006;2023-02-23T17:46:48;16.90;;;12.70;;